sensor_id;sensor_type;location;lat;lon;timestamp;P1;durP1;ratioP1;P2;durP2;ratioP2
43823;SDS011;29470;53.550;9.926;2023-03-03T00:04:03;54.20;;;21.10;;
43823;SDS011;29470;53.550;9.926;2023-03-03T00:09:06;61.80;;;22.10;;
43823;SDS011;29470;53.550;9.926;2023-03-03T00:14:16;57.15;;;20.98;;
43823;SDS011;29470;53.550;9.926;2023-03-03T00:19:24;53.58;;;20.90;;
43823;SDS011;29470;53.550;9.926;2023-03-03T00:24:29;57.83;;;21.35;;
43823;SDS011;29470;53.550;9.926;2023-03-03T00:29:39;50.10;;;19.42;;
43823;SDS011;29470;53.550;9.926;2023-03-03T00:34:47;53.83;;;19.93;;
43823;SDS011;29470;53.550;9.926;2023-03-03T00:39:51;50.75;;;20.38;;
43823;SDS011;29470;53.550;9.926;2023-03-03T00:44:57;62.08;;;20.15;;
43823;SDS011;29470;53.550;9.926;2023-03-03T00:50:20;54.67;;;20.58;;
43823;SDS011;29470;53.550;9.926;2023-03-03T00:55:31;63.60;;;21.55;;
43823;SDS011;29470;53.550;9.926;2023-03-03T01:00:36;67.88;;;21.05;;
43823;SDS011;29470;53.550;9.926;2023-03-03T01:05:43;52.80;;;19.67;;
43823;SDS011;29470;53.550;9.926;2023-03-03T01:10:47;59.60;;;21.00;;
43823;SDS011;29470;53.550;9.926;2023-03-03T01:15:52;55.45;;;19.88;;
43823;SDS011;29470;53.550;9.926;2023-03-03T01:20:56;74.30;;;20.70;;
43823;SDS011;29470;53.550;9.926;2023-03-03T01:25:59;60.88;;;20.48;;
43823;SDS011;29470;53.550;9.926;2023-03-03T01:31:03;61.88;;;21.73;;
43823;SDS011;29470;53.550;9.926;2023-03-03T01:36:08;57.05;;;21.63;;
43823;SDS011;29470;53.550;9.926;2023-03-03T01:41:11;58.95;;;21.25;;
43823;SDS011;29470;53.550;9.926;2023-03-03T01:46:26;69.53;;;21.23;;
43823;SDS011;29470;53.550;9.926;2023-03-03T01:51:47;55.08;;;20.90;;
43823;SDS011;29470;53.550;9.926;2023-03-03T01:56:52;67.40;;;21.55;;
43823;SDS011;29470;53.550;9.926;2023-03-03T02:02:00;51.97;;;19.50;;
43823;SDS011;29470;53.550;9.926;2023-03-03T02:07:05;48.78;;;20.05;;
43823;SDS011;29470;53.550;9.926;2023-03-03T02:12:11;48.67;;;19.67;;
43823;SDS011;29470;53.550;9.926;2023-03-03T02:17:18;52.97;;;18.05;;
43823;SDS011;29470;53.550;9.926;2023-03-03T02:22:23;45.08;;;19.08;;
43823;SDS011;29470;53.550;9.926;2023-03-03T02:27:46;45.90;;;17.63;;
43823;SDS011;29470;53.550;9.926;2023-03-03T02:32:49;55.35;;;19.10;;
43823;SDS011;29470;53.550;9.926;2023-03-03T02:37:52;48.40;;;18.80;;
43823;SDS011;29470;53.550;9.926;2023-03-03T02:42:59;59.25;;;18.83;;
43823;SDS011;29470;53.550;9.926;2023-03-03T02:48:06;41.45;;;18.30;;
43823;SDS011;29470;53.550;9.926;2023-03-03T02:53:09;47.30;;;17.70;;
43823;SDS011;29470;53.550;9.926;2023-03-03T02:58:14;48.75;;;17.60;;
43823;SDS011;29470;53.550;9.926;2023-03-03T03:03:17;44.80;;;17.02;;
43823;SDS011;29470;53.550;9.926;2023-03-03T03:08:20;47.83;;;17.80;;
43823;SDS011;29470;53.550;9.926;2023-03-03T03:13:25;61.90;;;18.80;;
43823;SDS011;29470;53.550;9.926;2023-03-03T03:18:28;38.95;;;16.63;;
43823;SDS011;29470;53.550;9.926;2023-03-03T03:23:33;59.67;;;17.27;;
43823;SDS011;29470;53.550;9.926;2023-03-03T03:28:37;53.33;;;16.23;;
43823;SDS011;29470;53.550;9.926;2023-03-03T03:33:40;45.90;;;16.33;;
43823;SDS011;29470;53.550;9.926;2023-03-03T03:38:44;42.47;;;16.33;;
43823;SDS011;29470;53.550;9.926;2023-03-03T03:43:49;50.28;;;16.40;;
43823;SDS011;29470;53.550;9.926;2023-03-03T03:48:52;51.17;;;16.67;;
43823;SDS011;29470;53.550;9.926;2023-03-03T03:53:55;45.22;;;16.60;;
43823;SDS011;29470;53.550;9.926;2023-03-03T03:58:59;39.33;;;16.45;;
43823;SDS011;29470;53.550;9.926;2023-03-03T04:04:03;41.30;;;15.20;;
43823;SDS011;29470;53.550;9.926;2023-03-03T04:09:06;38.33;;;15.52;;
43823;SDS011;29470;53.550;9.926;2023-03-03T04:14:10;37.03;;;15.40;;
43823;SDS011;29470;53.550;9.926;2023-03-03T04:19:13;44.28;;;17.50;;
43823;SDS011;29470;53.550;9.926;2023-03-03T04:24:16;39.95;;;16.85;;
43823;SDS011;29470;53.550;9.926;2023-03-03T04:29:23;45.17;;;17.20;;
43823;SDS011;29470;53.550;9.926;2023-03-03T04:34:27;45.60;;;17.50;;
43823;SDS011;29470;53.550;9.926;2023-03-03T04:39:29;53.80;;;19.80;;
43823;SDS011;29470;53.550;9.926;2023-03-03T04:44:34;60.03;;;19.55;;
43823;SDS011;29470;53.550;9.926;2023-03-03T04:49:37;55.65;;;19.35;;
43823;SDS011;29470;53.550;9.926;2023-03-03T04:54:40;51.08;;;19.20;;
43823;SDS011;29470;53.550;9.926;2023-03-03T04:59:45;66.65;;;20.58;;
43823;SDS011;29470;53.550;9.926;2023-03-03T05:04:48;58.20;;;21.48;;
43823;SDS011;29470;53.550;9.926;2023-03-03T05:09:50;62.42;;;21.05;;
43823;SDS011;29470;53.550;9.926;2023-03-03T05:14:55;59.60;;;21.05;;
43823;SDS011;29470;53.550;9.926;2023-03-03T05:19:57;57.13;;;20.60;;
43823;SDS011;29470;53.550;9.926;2023-03-03T05:25:00;58.15;;;20.20;;
43823;SDS011;29470;53.550;9.926;2023-03-03T05:30:05;59.85;;;20.05;;
43823;SDS011;29470;53.550;9.926;2023-03-03T05:35:09;57.10;;;19.88;;
43823;SDS011;29470;53.550;9.926;2023-03-03T05:40:12;70.88;;;20.70;;
43823;SDS011;29470;53.550;9.926;2023-03-03T05:45:17;54.00;;;20.70;;
43823;SDS011;29470;53.550;9.926;2023-03-03T05:50:21;63.35;;;21.80;;
43823;SDS011;29470;53.550;9.926;2023-03-03T05:55:25;58.10;;;22.80;;
43823;SDS011;29470;53.550;9.926;2023-03-03T06:00:29;58.88;;;21.20;;
43823;SDS011;29470;53.550;9.926;2023-03-03T06:05:32;65.72;;;20.83;;
43823;SDS011;29470;53.550;9.926;2023-03-03T06:10:35;62.55;;;20.23;;
43823;SDS011;29470;53.550;9.926;2023-03-03T06:15:41;55.45;;;19.83;;
43823;SDS011;29470;53.550;9.926;2023-03-03T06:20:44;50.90;;;18.88;;
43823;SDS011;29470;53.550;9.926;2023-03-03T06:25:47;49.13;;;17.90;;
43823;SDS011;29470;53.550;9.926;2023-03-03T06:30:53;51.80;;;18.15;;
43823;SDS011;29470;53.550;9.926;2023-03-03T06:35:56;43.22;;;16.70;;
43823;SDS011;29470;53.550;9.926;2023-03-03T06:40:59;45.63;;;16.60;;
43823;SDS011;29470;53.550;9.926;2023-03-03T06:46:04;54.28;;;16.80;;
43823;SDS011;29470;53.550;9.926;2023-03-03T06:51:13;46.35;;;17.98;;
43823;SDS011;29470;53.550;9.926;2023-03-03T06:56:24;33.97;;;14.27;;
43823;SDS011;29470;53.550;9.926;2023-03-03T07:01:29;38.72;;;15.32;;
43823;SDS011;29470;53.550;9.926;2023-03-03T07:06:36;50.90;;;18.27;;
43823;SDS011;29470;53.550;9.926;2023-03-03T07:11:39;44.85;;;18.13;;
43823;SDS011;29470;53.550;9.926;2023-03-03T07:16:43;51.28;;;18.73;;
43823;SDS011;29470;53.550;9.926;2023-03-03T07:21:46;49.45;;;18.75;;
43823;SDS011;29470;53.550;9.926;2023-03-03T07:26:49;50.40;;;17.50;;
43823;SDS011;29470;53.550;9.926;2023-03-03T07:31:54;49.63;;;17.27;;
43823;SDS011;29470;53.550;9.926;2023-03-03T07:37:00;49.88;;;18.52;;
43823;SDS011;29470;53.550;9.926;2023-03-03T07:42:20;54.92;;;16.90;;
43823;SDS011;29470;53.550;9.926;2023-03-03T07:47:36;45.85;;;18.58;;
43823;SDS011;29470;53.550;9.926;2023-03-03T07:52:39;39.65;;;16.02;;
43823;SDS011;29470;53.550;9.926;2023-03-03T07:57:43;53.38;;;17.02;;
43823;SDS011;29470;53.550;9.926;2023-03-03T08:02:49;37.15;;;14.02;;
43823;SDS011;29470;53.550;9.926;2023-03-03T08:08:09;37.20;;;14.98;;
43823;SDS011;29470;53.550;9.926;2023-03-03T08:13:18;31.73;;;14.20;;
43823;SDS011;29470;53.550;9.926;2023-03-03T08:18:25;34.10;;;13.82;;
43823;SDS011;29470;53.550;9.926;2023-03-03T08:23:30;38.90;;;15.77;;
43823;SDS011;29470;53.550;9.926;2023-03-03T08:28:32;35.60;;;15.07;;
43823;SDS011;29470;53.550;9.926;2023-03-03T08:33:37;46.00;;;17.70;;
43823;SDS011;29470;53.550;9.926;2023-03-03T08:38:40;42.60;;;17.88;;
43823;SDS011;29470;53.550;9.926;2023-03-03T08:43:43;38.00;;;15.40;;
43823;SDS011;29470;53.550;9.926;2023-03-03T08:48:47;28.73;;;12.70;;
43823;SDS011;29470;53.550;9.926;2023-03-03T08:53:50;36.40;;;13.02;;
43823;SDS011;29470;53.550;9.926;2023-03-03T08:58:53;34.15;;;14.43;;
43823;SDS011;29470;53.550;9.926;2023-03-03T09:04:05;41.25;;;15.95;;
43823;SDS011;29470;53.550;9.926;2023-03-03T09:09:08;48.80;;;17.45;;
43823;SDS011;29470;53.550;9.926;2023-03-03T09:14:11;65.47;;;23.00;;
43823;SDS011;29470;53.550;9.926;2023-03-03T09:19:18;33.72;;;13.13;;
43823;SDS011;29470;53.550;9.926;2023-03-03T09:24:25;31.17;;;13.43;;
43823;SDS011;29470;53.550;9.926;2023-03-03T09:29:29;31.85;;;13.38;;
43823;SDS011;29470;53.550;9.926;2023-03-03T09:34:38;31.58;;;13.38;;
43823;SDS011;29470;53.550;9.926;2023-03-03T09:39:42;31.35;;;13.55;;
43823;SDS011;29470;53.550;9.926;2023-03-03T09:44:54;42.17;;;15.82;;
43823;SDS011;29470;53.550;9.926;2023-03-03T09:50:24;38.67;;;15.40;;
43823;SDS011;29470;53.550;9.926;2023-03-03T09:55:39;46.85;;;18.17;;
43823;SDS011;29470;53.550;9.926;2023-03-03T10:00:52;40.47;;;13.48;;
43823;SDS011;29470;53.550;9.926;2023-03-03T10:06:02;28.67;;;12.00;;
43823;SDS011;29470;53.550;9.926;2023-03-03T10:11:12;46.00;;;14.70;;
43823;SDS011;29470;53.550;9.926;2023-03-03T10:16:26;27.58;;;11.18;;
43823;SDS011;29470;53.550;9.926;2023-03-03T10:21:43;36.22;;;15.20;;
43823;SDS011;29470;53.550;9.926;2023-03-03T10:27:02;19.65;;;8.43;;
43823;SDS011;29470;53.550;9.926;2023-03-03T10:32:24;22.75;;;11.18;;
43823;SDS011;29470;53.550;9.926;2023-03-03T10:37:38;24.73;;;10.73;;
43823;SDS011;29470;53.550;9.926;2023-03-03T10:42:54;29.38;;;12.88;;
43823;SDS011;29470;53.550;9.926;2023-03-03T10:48:20;25.08;;;11.05;;
43823;SDS011;29470;53.550;9.926;2023-03-03T10:53:42;27.90;;;11.65;;
43823;SDS011;29470;53.550;9.926;2023-03-03T10:58:56;23.02;;;10.30;;
43823;SDS011;29470;53.550;9.926;2023-03-03T11:04:08;28.13;;;10.40;;
43823;SDS011;29470;53.550;9.926;2023-03-03T11:09:36;23.42;;;12.00;;
43823;SDS011;29470;53.550;9.926;2023-03-03T11:14:53;18.92;;;9.02;;
43823;SDS011;29470;53.550;9.926;2023-03-03T11:20:15;18.15;;;7.95;;
43823;SDS011;29470;53.550;9.926;2023-03-03T11:25:31;15.05;;;7.25;;
43823;SDS011;29470;53.550;9.926;2023-03-03T11:30:49;21.10;;;10.07;;
43823;SDS011;29470;53.550;9.926;2023-03-03T11:36:08;15.80;;;7.82;;
43823;SDS011;29470;53.550;9.926;2023-03-03T11:41:18;18.33;;;8.85;;
43823;SDS011;29470;53.550;9.926;2023-03-03T11:46:29;15.93;;;8.40;;
43823;SDS011;29470;53.550;9.926;2023-03-03T11:51:40;19.02;;;8.50;;
43823;SDS011;29470;53.550;9.926;2023-03-03T11:56:52;19.45;;;8.85;;
43823;SDS011;29470;53.550;9.926;2023-03-03T12:02:00;18.48;;;8.52;;
43823;SDS011;29470;53.550;9.926;2023-03-03T12:07:15;20.77;;;9.80;;
43823;SDS011;29470;53.550;9.926;2023-03-03T12:12:29;19.10;;;9.45;;
43823;SDS011;29470;53.550;9.926;2023-03-03T12:17:43;18.73;;;9.18;;
43823;SDS011;29470;53.550;9.926;2023-03-03T12:23:08;21.15;;;8.43;;
43823;SDS011;29470;53.550;9.926;2023-03-03T12:28:21;14.45;;;7.30;;
43823;SDS011;29470;53.550;9.926;2023-03-03T12:33:30;14.50;;;6.35;;
43823;SDS011;29470;53.550;9.926;2023-03-03T12:38:42;16.95;;;6.72;;
43823;SDS011;29470;53.550;9.926;2023-03-03T12:43:55;13.60;;;5.55;;
43823;SDS011;29470;53.550;9.926;2023-03-03T12:49:03;12.23;;;5.00;;
43823;SDS011;29470;53.550;9.926;2023-03-03T12:59:41;10.70;;;3.40;;
43823;SDS011;29470;53.550;9.926;2023-03-03T13:04:54;7.63;;;3.05;;
43823;SDS011;29470;53.550;9.926;2023-03-03T13:10:04;7.85;;;2.92;;
43823;SDS011;29470;53.550;9.926;2023-03-03T13:15:19;4.68;;;2.55;;
43823;SDS011;29470;53.550;9.926;2023-03-03T13:20:33;5.47;;;2.20;;
43823;SDS011;29470;53.550;9.926;2023-03-03T13:25:47;6.47;;;1.65;;
43823;SDS011;29470;53.550;9.926;2023-03-03T13:30:56;5.28;;;1.50;;
43823;SDS011;29470;53.550;9.926;2023-03-03T13:36:05;6.60;;;1.50;;
43823;SDS011;29470;53.550;9.926;2023-03-03T13:41:14;4.30;;;1.60;;
43823;SDS011;29470;53.550;9.926;2023-03-03T13:46:26;3.08;;;1.50;;
43823;SDS011;29470;53.550;9.926;2023-03-03T13:51:41;4.82;;;1.67;;
43823;SDS011;29470;53.550;9.926;2023-03-03T13:57:02;8.85;;;1.80;;
43823;SDS011;29470;53.550;9.926;2023-03-03T14:02:22;6.53;;;2.30;;
43823;SDS011;29470;53.550;9.926;2023-03-03T14:07:44;6.78;;;2.53;;
43823;SDS011;29470;53.550;9.926;2023-03-03T14:12:56;3.55;;;1.77;;
43823;SDS011;29470;53.550;9.926;2023-03-03T14:18:10;2.75;;;1.70;;
43823;SDS011;29470;53.550;9.926;2023-03-03T14:23:24;3.58;;;1.30;;
43823;SDS011;29470;53.550;9.926;2023-03-03T14:28:37;7.43;;;1.33;;
43823;SDS011;29470;53.550;9.926;2023-03-03T14:33:43;4.05;;;1.65;;
43823;SDS011;29470;53.550;9.926;2023-03-03T14:38:57;4.45;;;1.30;;
43823;SDS011;29470;53.550;9.926;2023-03-03T14:44:01;1.98;;;0.95;;
43823;SDS011;29470;53.550;9.926;2023-03-03T14:49:29;3.15;;;1.30;;
43823;SDS011;29470;53.550;9.926;2023-03-03T14:54:36;4.40;;;1.08;;
43823;SDS011;29470;53.550;9.926;2023-03-03T14:59:41;3.83;;;1.30;;
43823;SDS011;29470;53.550;9.926;2023-03-03T15:05:12;2.67;;;1.10;;
43823;SDS011;29470;53.550;9.926;2023-03-03T15:10:27;5.10;;;1.40;;
43823;SDS011;29470;53.550;9.926;2023-03-03T15:15:49;4.68;;;1.38;;
43823;SDS011;29470;53.550;9.926;2023-03-03T15:26:03;5.47;;;1.63;;
43823;SDS011;29470;53.550;9.926;2023-03-03T15:31:14;8.35;;;2.15;;
43823;SDS011;29470;53.550;9.926;2023-03-03T15:36:29;3.70;;;1.42;;
43823;SDS011;29470;53.550;9.926;2023-03-03T15:41:42;5.72;;;1.60;;
43823;SDS011;29470;53.550;9.926;2023-03-03T15:46:49;7.38;;;1.80;;
43823;SDS011;29470;53.550;9.926;2023-03-03T15:52:11;10.77;;;2.35;;
43823;SDS011;29470;53.550;9.926;2023-03-03T15:57:25;5.03;;;1.60;;
43823;SDS011;29470;53.550;9.926;2023-03-03T16:02:45;7.95;;;2.08;;
43823;SDS011;29470;53.550;9.926;2023-03-03T16:07:58;8.48;;;1.98;;
43823;SDS011;29470;53.550;9.926;2023-03-03T16:13:15;9.02;;;1.77;;
43823;SDS011;29470;53.550;9.926;2023-03-03T16:18:27;9.70;;;2.35;;
43823;SDS011;29470;53.550;9.926;2023-03-03T16:23:42;10.23;;;2.30;;
43823;SDS011;29470;53.550;9.926;2023-03-03T16:28:51;6.40;;;1.90;;
43823;SDS011;29470;53.550;9.926;2023-03-03T16:34:11;9.77;;;2.00;;
43823;SDS011;29470;53.550;9.926;2023-03-03T16:39:21;10.90;;;2.00;;
43823;SDS011;29470;53.550;9.926;2023-03-03T16:44:33;15.20;;;2.47;;
43823;SDS011;29470;53.550;9.926;2023-03-03T16:49:44;10.20;;;2.17;;
43823;SDS011;29470;53.550;9.926;2023-03-03T16:54:56;9.38;;;2.20;;
43823;SDS011;29470;53.550;9.926;2023-03-03T17:00:05;8.77;;;2.08;;
43823;SDS011;29470;53.550;9.926;2023-03-03T17:05:16;14.35;;;3.00;;
43823;SDS011;29470;53.550;9.926;2023-03-03T17:10:31;8.85;;;2.20;;
43823;SDS011;29470;53.550;9.926;2023-03-03T17:15:40;18.88;;;3.58;;
43823;SDS011;29470;53.550;9.926;2023-03-03T17:20:50;18.08;;;3.17;;
43823;SDS011;29470;53.550;9.926;2023-03-03T17:26:00;18.60;;;3.40;;
43823;SDS011;29470;53.550;9.926;2023-03-03T17:31:12;16.73;;;2.35;;
43823;SDS011;29470;53.550;9.926;2023-03-03T17:36:25;20.75;;;3.15;;
43823;SDS011;29470;53.550;9.926;2023-03-03T17:41:39;16.42;;;2.70;;
43823;SDS011;29470;53.550;9.926;2023-03-03T17:46:47;22.38;;;3.55;;
43823;SDS011;29470;53.550;9.926;2023-03-03T17:52:04;11.15;;;2.50;;
43823;SDS011;29470;53.550;9.926;2023-03-03T17:57:25;15.43;;;2.45;;
43823;SDS011;29470;53.550;9.926;2023-03-03T18:02:40;10.18;;;2.83;;
43823;SDS011;29470;53.550;9.926;2023-03-03T18:07:57;16.35;;;2.67;;
43823;SDS011;29470;53.550;9.926;2023-03-03T18:13:18;13.77;;;2.92;;
43823;SDS011;29470;53.550;9.926;2023-03-03T18:18:40;17.63;;;2.55;;
43823;SDS011;29470;53.550;9.926;2023-03-03T18:29:29;16.48;;;3.40;;
43823;SDS011;29470;53.550;9.926;2023-03-03T18:34:34;17.48;;;2.67;;
43823;SDS011;29470;53.550;9.926;2023-03-03T18:39:39;29.25;;;3.25;;
43823;SDS011;29470;53.550;9.926;2023-03-03T18:44:47;14.73;;;2.97;;
43823;SDS011;29470;53.550;9.926;2023-03-03T18:49:52;16.65;;;3.60;;
43823;SDS011;29470;53.550;9.926;2023-03-03T18:55:00;21.23;;;2.92;;
43823;SDS011;29470;53.550;9.926;2023-03-03T19:00:23;16.77;;;2.67;;
43823;SDS011;29470;53.550;9.926;2023-03-03T19:05:33;21.83;;;3.90;;
43823;SDS011;29470;53.550;9.926;2023-03-03T19:10:49;18.98;;;3.30;;
43823;SDS011;29470;53.550;9.926;2023-03-03T19:15:55;11.63;;;2.60;;
43823;SDS011;29470;53.550;9.926;2023-03-03T19:21:00;22.40;;;3.78;;
43823;SDS011;29470;53.550;9.926;2023-03-03T19:26:19;24.30;;;3.47;;
43823;SDS011;29470;53.550;9.926;2023-03-03T19:31:41;20.52;;;3.40;;
43823;SDS011;29470;53.550;9.926;2023-03-03T19:36:57;22.23;;;4.45;;
43823;SDS011;29470;53.550;9.926;2023-03-03T19:42:14;22.98;;;3.95;;
43823;SDS011;29470;53.550;9.926;2023-03-03T19:47:30;16.65;;;3.50;;
43823;SDS011;29470;53.550;9.926;2023-03-03T19:52:40;21.48;;;3.88;;
43823;SDS011;29470;53.550;9.926;2023-03-03T19:57:49;23.00;;;3.50;;
43823;SDS011;29470;53.550;9.926;2023-03-03T20:03:18;23.30;;;3.55;;
43823;SDS011;29470;53.550;9.926;2023-03-03T20:08:36;25.50;;;4.53;;
43823;SDS011;29470;53.550;9.926;2023-03-03T20:13:48;22.48;;;4.32;;
43823;SDS011;29470;53.550;9.926;2023-03-03T20:19:04;25.92;;;3.80;;
43823;SDS011;29470;53.550;9.926;2023-03-03T20:29:46;19.23;;;3.58;;
43823;SDS011;29470;53.550;9.926;2023-03-03T20:35:08;25.60;;;4.25;;
43823;SDS011;29470;53.550;9.926;2023-03-03T20:40:23;18.17;;;3.97;;
43823;SDS011;29470;53.550;9.926;2023-03-03T20:45:38;27.02;;;4.63;;
43823;SDS011;29470;53.550;9.926;2023-03-03T20:50:52;22.63;;;3.55;;
43823;SDS011;29470;53.550;9.926;2023-03-03T20:56:05;19.70;;;3.60;;
43823;SDS011;29470;53.550;9.926;2023-03-03T21:01:15;25.00;;;3.30;;
43823;SDS011;29470;53.550;9.926;2023-03-03T21:06:36;23.23;;;3.78;;
43823;SDS011;29470;53.550;9.926;2023-03-03T21:11:41;19.30;;;3.80;;
43823;SDS011;29470;53.550;9.926;2023-03-03T21:16:45;15.02;;;2.45;;
43823;SDS011;29470;53.550;9.926;2023-03-03T21:21:50;14.45;;;2.45;;
43823;SDS011;29470;53.550;9.926;2023-03-03T21:26:53;17.35;;;3.28;;
43823;SDS011;29470;53.550;9.926;2023-03-03T21:31:57;16.83;;;2.75;;
43823;SDS011;29470;53.550;9.926;2023-03-03T21:37:03;20.00;;;3.25;;
43823;SDS011;29470;53.550;9.926;2023-03-03T21:42:07;20.40;;;3.30;;
43823;SDS011;29470;53.550;9.926;2023-03-03T21:47:12;24.92;;;3.78;;
43823;SDS011;29470;53.550;9.926;2023-03-03T21:52:18;18.85;;;2.85;;
43823;SDS011;29470;53.550;9.926;2023-03-03T21:57:22;18.92;;;3.20;;
43823;SDS011;29470;53.550;9.926;2023-03-03T22:02:25;19.85;;;3.08;;
43823;SDS011;29470;53.550;9.926;2023-03-03T22:07:29;20.77;;;2.83;;
43823;SDS011;29470;53.550;9.926;2023-03-03T22:12:32;20.48;;;4.00;;
43823;SDS011;29470;53.550;9.926;2023-03-03T22:17:35;17.58;;;2.80;;
43823;SDS011;29470;53.550;9.926;2023-03-03T22:22:39;15.55;;;4.22;;
43823;SDS011;29470;53.550;9.926;2023-03-03T22:27:41;21.42;;;3.40;;
43823;SDS011;29470;53.550;9.926;2023-03-03T22:32:44;17.83;;;3.08;;
43823;SDS011;29470;53.550;9.926;2023-03-03T22:37:48;18.15;;;2.90;;
43823;SDS011;29470;53.550;9.926;2023-03-03T22:42:51;21.02;;;3.30;;
43823;SDS011;29470;53.550;9.926;2023-03-03T22:47:54;17.48;;;2.90;;
43823;SDS011;29470;53.550;9.926;2023-03-03T22:52:58;20.95;;;2.67;;
43823;SDS011;29470;53.550;9.926;2023-03-03T22:58:00;15.68;;;2.78;;
43823;SDS011;29470;53.550;9.926;2023-03-03T23:03:04;14.85;;;2.90;;
43823;SDS011;29470;53.550;9.926;2023-03-03T23:08:09;15.90;;;3.17;;
43823;SDS011;29470;53.550;9.926;2023-03-03T23:13:15;11.90;;;2.60;;
43823;SDS011;29470;53.550;9.926;2023-03-03T23:18:18;10.38;;;2.22;;
43823;SDS011;29470;53.550;9.926;2023-03-03T23:23:22;14.57;;;2.45;;
43823;SDS011;29470;53.550;9.926;2023-03-03T23:28:25;11.85;;;2.33;;
43823;SDS011;29470;53.550;9.926;2023-03-03T23:33:28;12.27;;;2.35;;
43823;SDS011;29470;53.550;9.926;2023-03-03T23:38:32;12.05;;;2.78;;
43823;SDS011;29470;53.550;9.926;2023-03-03T23:43:35;11.30;;;2.88;;
43823;SDS011;29470;53.550;9.926;2023-03-03T23:48:38;11.70;;;3.10;;
43823;SDS011;29470;53.550;9.926;2023-03-03T23:53:42;14.30;;;2.88;;
43823;SDS011;29470;53.550;9.926;2023-03-03T23:58:45;9.98;;;2.97;;
